Nikol'Sk, Russia
Current Conditions -  °F | °C
As of 6:00 PM on Thursday 30 Oct 2014 (Local Time) from UWGG Reporting Station
Smoke Smoke  
Wind Chill: 36°   Ceiling: 10000
Heat Index: 39°   Visibility: 3mi
Dew Point: 27°   Wind: 4mph
Humidity: 61%   Direction: 180°S
Pressure: 30.12"   Gusts: NA
Location:  59.53°N, 45.47°E
Report Text: UWGG 301500Z 18002MPS 4900 FU FEW050 BKN100 04/M03 Q1020 NOSIG18090060 RMK QFE758
Loading
Personal Weather Stations






























Interactive Weather Map
Tropical Storm Tracking
New forecast layout! Learn more

10-Day Weather Forecast

Advertisements
Track Severe Weather on mobile